sensor_id;sensor_type;location;lat;lon;timestamp;temperature;humidity
14735;DHT22;7458;49.002;8.472;2023-02-18T00:01:32;13.70;99.90
14735;DHT22;7458;49.002;8.472;2023-02-18T00:03:59;13.60;99.90
14735;DHT22;7458;49.002;8.472;2023-02-18T00:06:28;13.60;99.90
14735;DHT22;7458;49.002;8.472;2023-02-18T00:08:56;13.60;99.90
14735;DHT22;7458;49.002;8.472;2023-02-18T00:11:26;13.60;99.90
14735;DHT22;7458;49.002;8.472;2023-02-18T00:13:55;13.60;99.90
14735;DHT22;7458;49.002;8.472;2023-02-18T00:16:24;13.60;99.90
14735;DHT22;7458;49.002;8.472;2023-02-18T00:18:57;13.60;99.90
14735;DHT22;7458;49.002;8.472;2023-02-18T00:21:24;13.70;99.90
14735;DHT22;7458;49.002;8.472;2023-02-18T00:23:51;13.70;99.90
14735;DHT22;7458;49.002;8.472;2023-02-18T00:26:18;13.70;99.90
14735;DHT22;7458;49.002;8.472;2023-02-18T00:28:45;13.70;99.90
14735;DHT22;7458;49.002;8.472;2023-02-18T00:31:24;13.70;99.90
14735;DHT22;7458;49.002;8.472;2023-02-18T00:33:52;13.70;99.90
14735;DHT22;7458;49.002;8.472;2023-02-18T00:36:19;13.70;99.90
14735;DHT22;7458;49.002;8.472;2023-02-18T00:38:48;13.70;99.90
14735;DHT22;7458;49.002;8.472;2023-02-18T00:41:16;13.70;99.90
14735;DHT22;7458;49.002;8.472;2023-02-18T00:43:43;13.70;99.90
14735;DHT22;7458;49.002;8.472;2023-02-18T00:46:09;13.70;99.90
14735;DHT22;7458;49.002;8.472;2023-02-18T00:48:35;13.70;99.90
14735;DHT22;7458;49.002;8.472;2023-02-18T00:51:03;13.70;99.90
14735;DHT22;7458;49.002;8.472;2023-02-18T00:53:29;13.70;99.90
14735;DHT22;7458;49.002;8.472;2023-02-18T00:55:56;13.70;99.90
14735;DHT22;7458;49.002;8.472;2023-02-18T00:58:22;13.70;99.90
14735;DHT22;7458;49.002;8.472;2023-02-18T01:00:49;13.70;99.90
14735;DHT22;7458;49.002;8.472;2023-02-18T01:03:15;13.70;99.90
14735;DHT22;7458;49.002;8.472;2023-02-18T01:05:41;13.70;99.90
14735;DHT22;7458;49.002;8.472;2023-02-18T01:08:09;13.70;99.90
14735;DHT22;7458;49.002;8.472;2023-02-18T01:10:40;13.60;99.90
14735;DHT22;7458;49.002;8.472;2023-02-18T01:13:09;13.60;99.90
14735;DHT22;7458;49.002;8.472;2023-02-18T01:15:36;13.60;99.90
14735;DHT22;7458;49.002;8.472;2023-02-18T01:18:07;13.60;99.90
14735;DHT22;7458;49.002;8.472;2023-02-18T01:20:35;13.60;99.90
14735;DHT22;7458;49.002;8.472;2023-02-18T01:23:03;13.60;99.90
14735;DHT22;7458;49.002;8.472;2023-02-18T01:25:29;13.60;99.90
14735;DHT22;7458;49.002;8.472;2023-02-18T01:27:56;13.60;99.90
14735;DHT22;7458;49.002;8.472;2023-02-18T01:30:22;13.50;99.90
14735;DHT22;7458;49.002;8.472;2023-02-18T01:32:48;13.50;99.90
14735;DHT22;7458;49.002;8.472;2023-02-18T01:35:17;13.60;99.90
14735;DHT22;7458;49.002;8.472;2023-02-18T01:37:44;13.50;99.90
14735;DHT22;7458;49.002;8.472;2023-02-18T01:40:16;13.60;99.90
14735;DHT22;7458;49.002;8.472;2023-02-18T01:42:45;13.60;99.90
14735;DHT22;7458;49.002;8.472;2023-02-18T01:48:22;13.60;99.90
14735;DHT22;7458;49.002;8.472;2023-02-18T01:51:02;13.60;99.90
14735;DHT22;7458;49.002;8.472;2023-02-18T01:53:38;13.60;99.90
14735;DHT22;7458;49.002;8.472;2023-02-18T01:56:15;13.60;99.90
14735;DHT22;7458;49.002;8.472;2023-02-18T01:58:54;13.60;99.90
14735;DHT22;7458;49.002;8.472;2023-02-18T02:01:21;13.60;99.90
14735;DHT22;7458;49.002;8.472;2023-02-18T02:03:47;13.60;99.90
14735;DHT22;7458;49.002;8.472;2023-02-18T02:06:17;13.60;99.90
14735;DHT22;7458;49.002;8.472;2023-02-18T02:08:44;13.60;99.90
14735;DHT22;7458;49.002;8.472;2023-02-18T02:11:35;13.60;99.90
14735;DHT22;7458;49.002;8.472;2023-02-18T02:14:41;13.60;99.90
14735;DHT22;7458;49.002;8.472;2023-02-18T02:17:55;13.50;99.90
14735;DHT22;7458;49.002;8.472;2023-02-18T02:23:33;13.40;99.90
14735;DHT22;7458;49.002;8.472;2023-02-18T02:30:04;13.40;99.90
14735;DHT22;7458;49.002;8.472;2023-02-18T02:36:08;13.40;99.90
14735;DHT22;7458;49.002;8.472;2023-02-18T02:45:04;13.20;99.90
14735;DHT22;7458;49.002;8.472;2023-02-18T02:47:46;13.00;99.90
14735;DHT22;7458;49.002;8.472;2023-02-18T02:53:20;12.90;99.90
14735;DHT22;7458;49.002;8.472;2023-02-18T02:55:50;12.90;99.90
14735;DHT22;7458;49.002;8.472;2023-02-18T02:58:18;12.90;99.90
14735;DHT22;7458;49.002;8.472;2023-02-18T03:03:48;13.00;99.90
14735;DHT22;7458;49.002;8.472;2023-02-18T03:09:23;13.00;99.90
14735;DHT22;7458;49.002;8.472;2023-02-18T03:12:03;13.00;99.90
14735;DHT22;7458;49.002;8.472;2023-02-18T03:15:07;13.00;99.90
14735;DHT22;7458;49.002;8.472;2023-02-18T03:18:21;13.00;99.90
14735;DHT22;7458;49.002;8.472;2023-02-18T03:20:42;12.90;99.90
14735;DHT22;7458;49.002;8.472;2023-02-18T03:23:28;12.90;99.90
14735;DHT22;7458;49.002;8.472;2023-02-18T03:26:16;12.90;99.90
14735;DHT22;7458;49.002;8.472;2023-02-18T03:28:44;12.90;99.90
14735;DHT22;7458;49.002;8.472;2023-02-18T03:31:17;13.00;99.90
14735;DHT22;7458;49.002;8.472;2023-02-18T03:33:56;13.00;99.90
14735;DHT22;7458;49.002;8.472;2023-02-18T03:36:27;13.00;99.90
14735;DHT22;7458;49.002;8.472;2023-02-18T03:39:00;13.00;99.90
14735;DHT22;7458;49.002;8.472;2023-02-18T03:41:29;13.10;99.90
14735;DHT22;7458;49.002;8.472;2023-02-18T03:44:01;13.10;99.90
14735;DHT22;7458;49.002;8.472;2023-02-18T03:46:31;13.10;99.90
14735;DHT22;7458;49.002;8.472;2023-02-18T03:48:59;13.10;99.90
14735;DHT22;7458;49.002;8.472;2023-02-18T03:51:24;13.10;99.90
14735;DHT22;7458;49.002;8.472;2023-02-18T03:53:50;13.20;99.90
14735;DHT22;7458;49.002;8.472;2023-02-18T03:56:17;13.20;99.90
14735;DHT22;7458;49.002;8.472;2023-02-18T03:58:45;13.20;99.90
14735;DHT22;7458;49.002;8.472;2023-02-18T04:01:11;13.20;99.90
14735;DHT22;7458;49.002;8.472;2023-02-18T04:03:38;13.10;99.90
14735;DHT22;7458;49.002;8.472;2023-02-18T04:06:04;13.10;99.90
14735;DHT22;7458;49.002;8.472;2023-02-18T04:08:30;13.20;99.90
14735;DHT22;7458;49.002;8.472;2023-02-18T04:10:56;13.20;99.90
14735;DHT22;7458;49.002;8.472;2023-02-18T04:13:21;13.20;99.90
14735;DHT22;7458;49.002;8.472;2023-02-18T04:15:50;13.20;99.90
14735;DHT22;7458;49.002;8.472;2023-02-18T04:18:16;13.10;99.90
14735;DHT22;7458;49.002;8.472;2023-02-18T04:20:42;13.20;99.90
14735;DHT22;7458;49.002;8.472;2023-02-18T04:23:08;13.20;99.90
14735;DHT22;7458;49.002;8.472;2023-02-18T04:25:34;13.20;99.90
14735;DHT22;7458;49.002;8.472;2023-02-18T04:28:00;13.20;99.90
14735;DHT22;7458;49.002;8.472;2023-02-18T04:30:26;13.20;99.90
14735;DHT22;7458;49.002;8.472;2023-02-18T04:32:52;13.20;99.90
14735;DHT22;7458;49.002;8.472;2023-02-18T04:35:17;13.10;99.90
14735;DHT22;7458;49.002;8.472;2023-02-18T04:37:43;13.10;99.90
14735;DHT22;7458;49.002;8.472;2023-02-18T04:40:09;13.10;99.90
14735;DHT22;7458;49.002;8.472;2023-02-18T04:42:35;13.10;99.90
14735;DHT22;7458;49.002;8.472;2023-02-18T04:45:01;13.10;99.90
14735;DHT22;7458;49.002;8.472;2023-02-18T04:47:27;13.10;99.90
14735;DHT22;7458;49.002;8.472;2023-02-18T04:49:54;13.10;99.90
14735;DHT22;7458;49.002;8.472;2023-02-18T04:52:20;13.20;99.90
14735;DHT22;7458;49.002;8.472;2023-02-18T04:54:46;13.10;99.90
14735;DHT22;7458;49.002;8.472;2023-02-18T04:57:12;13.00;99.90
14735;DHT22;7458;49.002;8.472;2023-02-18T04:59:37;13.00;99.90
14735;DHT22;7458;49.002;8.472;2023-02-18T05:02:04;13.00;99.90
14735;DHT22;7458;49.002;8.472;2023-02-18T05:04:30;13.00;99.90
14735;DHT22;7458;49.002;8.472;2023-02-18T05:06:56;13.00;99.90
14735;DHT22;7458;49.002;8.472;2023-02-18T05:09:22;13.00;99.90
14735;DHT22;7458;49.002;8.472;2023-02-18T05:11:48;13.00;99.90
14735;DHT22;7458;49.002;8.472;2023-02-18T05:14:14;13.00;99.90
14735;DHT22;7458;49.002;8.472;2023-02-18T05:16:40;13.00;99.90
14735;DHT22;7458;49.002;8.472;2023-02-18T05:19:06;13.00;99.90
14735;DHT22;7458;49.002;8.472;2023-02-18T05:21:32;13.00;99.90
14735;DHT22;7458;49.002;8.472;2023-02-18T05:23:58;13.00;99.90
14735;DHT22;7458;49.002;8.472;2023-02-18T05:26:24;13.00;99.90
14735;DHT22;7458;49.002;8.472;2023-02-18T05:28:50;13.00;99.90
14735;DHT22;7458;49.002;8.472;2023-02-18T05:31:15;13.00;99.90
14735;DHT22;7458;49.002;8.472;2023-02-18T05:33:41;13.00;99.90
14735;DHT22;7458;49.002;8.472;2023-02-18T05:36:07;13.00;99.90
14735;DHT22;7458;49.002;8.472;2023-02-18T05:38:33;13.00;99.90
14735;DHT22;7458;49.002;8.472;2023-02-18T05:40:59;13.10;99.90
14735;DHT22;7458;49.002;8.472;2023-02-18T05:43:24;13.00;99.90
14735;DHT22;7458;49.002;8.472;2023-02-18T05:45:50;13.00;99.90
14735;DHT22;7458;49.002;8.472;2023-02-18T05:48:16;13.00;99.90
14735;DHT22;7458;49.002;8.472;2023-02-18T05:50:41;13.00;99.90
14735;DHT22;7458;49.002;8.472;2023-02-18T05:53:07;13.00;99.90
14735;DHT22;7458;49.002;8.472;2023-02-18T05:55:33;13.00;99.90
14735;DHT22;7458;49.002;8.472;2023-02-18T05:58:04;13.00;99.90
14735;DHT22;7458;49.002;8.472;2023-02-18T06:00:30;13.00;99.90
14735;DHT22;7458;49.002;8.472;2023-02-18T06:02:57;13.10;99.90
14735;DHT22;7458;49.002;8.472;2023-02-18T06:05:23;13.00;99.90
14735;DHT22;7458;49.002;8.472;2023-02-18T06:07:49;13.00;99.90
14735;DHT22;7458;49.002;8.472;2023-02-18T06:10:15;13.00;99.90
14735;DHT22;7458;49.002;8.472;2023-02-18T06:12:42;13.10;99.90
14735;DHT22;7458;49.002;8.472;2023-02-18T06:15:08;13.10;99.90
14735;DHT22;7458;49.002;8.472;2023-02-18T06:17:34;13.10;99.90
14735;DHT22;7458;49.002;8.472;2023-02-18T06:20:00;13.00;99.90
14735;DHT22;7458;49.002;8.472;2023-02-18T06:22:26;13.00;99.90
14735;DHT22;7458;49.002;8.472;2023-02-18T06:24:52;13.00;99.90
14735;DHT22;7458;49.002;8.472;2023-02-18T06:27:18;13.00;99.90
14735;DHT22;7458;49.002;8.472;2023-02-18T06:29:43;13.10;99.90
14735;DHT22;7458;49.002;8.472;2023-02-18T06:32:09;13.00;99.90
14735;DHT22;7458;49.002;8.472;2023-02-18T06:34:35;13.10;99.90
14735;DHT22;7458;49.002;8.472;2023-02-18T06:37:00;13.10;99.90
14735;DHT22;7458;49.002;8.472;2023-02-18T06:39:26;13.00;99.90
14735;DHT22;7458;49.002;8.472;2023-02-18T06:41:52;13.10;99.90
14735;DHT22;7458;49.002;8.472;2023-02-18T06:44:17;13.10;99.90
14735;DHT22;7458;49.002;8.472;2023-02-18T06:46:43;13.10;99.90
14735;DHT22;7458;49.002;8.472;2023-02-18T06:49:09;13.10;99.90
14735;DHT22;7458;49.002;8.472;2023-02-18T06:51:35;13.00;99.90
14735;DHT22;7458;49.002;8.472;2023-02-18T06:54:00;13.00;99.90
14735;DHT22;7458;49.002;8.472;2023-02-18T06:56:26;13.10;99.90
14735;DHT22;7458;49.002;8.472;2023-02-18T06:58:52;13.10;99.90
14735;DHT22;7458;49.002;8.472;2023-02-18T07:01:18;13.20;99.90
14735;DHT22;7458;49.002;8.472;2023-02-18T07:03:43;13.10;99.90
14735;DHT22;7458;49.002;8.472;2023-02-18T07:06:09;13.20;99.90
14735;DHT22;7458;49.002;8.472;2023-02-18T07:08:35;13.20;99.90
14735;DHT22;7458;49.002;8.472;2023-02-18T07:11:02;13.30;99.90
14735;DHT22;7458;49.002;8.472;2023-02-18T07:13:28;13.30;99.90
14735;DHT22;7458;49.002;8.472;2023-02-18T07:15:54;13.30;99.90
14735;DHT22;7458;49.002;8.472;2023-02-18T07:18:19;13.40;99.90
14735;DHT22;7458;49.002;8.472;2023-02-18T07:20:45;13.40;99.90
14735;DHT22;7458;49.002;8.472;2023-02-18T07:23:11;13.40;99.90
14735;DHT22;7458;49.002;8.472;2023-02-18T07:25:37;13.40;99.90
14735;DHT22;7458;49.002;8.472;2023-02-18T07:28:03;13.40;99.90
14735;DHT22;7458;49.002;8.472;2023-02-18T07:30:28;13.40;99.90
14735;DHT22;7458;49.002;8.472;2023-02-18T07:32:54;13.50;99.90
14735;DHT22;7458;49.002;8.472;2023-02-18T07:35:20;13.50;99.90
14735;DHT22;7458;49.002;8.472;2023-02-18T07:37:47;13.60;99.90
14735;DHT22;7458;49.002;8.472;2023-02-18T07:40:17;13.70;99.90
14735;DHT22;7458;49.002;8.472;2023-02-18T07:42:44;13.80;99.90
14735;DHT22;7458;49.002;8.472;2023-02-18T07:45:11;13.80;99.90
14735;DHT22;7458;49.002;8.472;2023-02-18T07:47:37;13.80;99.90
14735;DHT22;7458;49.002;8.472;2023-02-18T07:50:04;13.80;99.90
14735;DHT22;7458;49.002;8.472;2023-02-18T07:52:31;13.90;99.90
14735;DHT22;7458;49.002;8.472;2023-02-18T07:54:56;13.90;99.90
14735;DHT22;7458;49.002;8.472;2023-02-18T07:57:22;13.90;99.90
14735;DHT22;7458;49.002;8.472;2023-02-18T07:59:48;13.90;99.90
14735;DHT22;7458;49.002;8.472;2023-02-18T08:02:20;14.00;99.90
14735;DHT22;7458;49.002;8.472;2023-02-18T08:04:48;14.00;99.90
14735;DHT22;7458;49.002;8.472;2023-02-18T08:07:16;14.00;99.90
14735;DHT22;7458;49.002;8.472;2023-02-18T08:09:43;14.00;99.90
14735;DHT22;7458;49.002;8.472;2023-02-18T08:12:09;14.10;99.90
14735;DHT22;7458;49.002;8.472;2023-02-18T08:14:35;14.10;99.90
14735;DHT22;7458;49.002;8.472;2023-02-18T08:17:01;14.20;99.90
14735;DHT22;7458;49.002;8.472;2023-02-18T08:19:26;14.10;99.90
14735;DHT22;7458;49.002;8.472;2023-02-18T08:21:52;14.20;99.90
14735;DHT22;7458;49.002;8.472;2023-02-18T08:24:18;14.30;99.90
14735;DHT22;7458;49.002;8.472;2023-02-18T08:26:43;14.30;99.90
14735;DHT22;7458;49.002;8.472;2023-02-18T08:29:09;14.30;99.90
14735;DHT22;7458;49.002;8.472;2023-02-18T08:31:35;14.40;99.90
14735;DHT22;7458;49.002;8.472;2023-02-18T08:34:01;14.50;99.90
14735;DHT22;7458;49.002;8.472;2023-02-18T08:36:28;14.60;99.90
14735;DHT22;7458;49.002;8.472;2023-02-18T08:38:55;14.60;99.90
14735;DHT22;7458;49.002;8.472;2023-02-18T08:41:21;13.10;99.90
14735;DHT22;7458;49.002;8.472;2023-02-18T08:43:48;14.70;99.90
14735;DHT22;7458;49.002;8.472;2023-02-18T08:46:15;14.80;99.90
14735;DHT22;7458;49.002;8.472;2023-02-18T08:48:43;14.90;99.90
14735;DHT22;7458;49.002;8.472;2023-02-18T08:51:17;14.90;99.90
14735;DHT22;7458;49.002;8.472;2023-02-18T08:53:44;15.00;99.90
14735;DHT22;7458;49.002;8.472;2023-02-18T08:56:12;15.20;99.90
14735;DHT22;7458;49.002;8.472;2023-02-18T08:58:39;15.30;99.90
14735;DHT22;7458;49.002;8.472;2023-02-18T09:01:07;15.40;99.90
14735;DHT22;7458;49.002;8.472;2023-02-18T09:03:34;15.40;99.90
14735;DHT22;7458;49.002;8.472;2023-02-18T09:06:00;15.30;99.90
14735;DHT22;7458;49.002;8.472;2023-02-18T09:08:28;15.20;99.90
14735;DHT22;7458;49.002;8.472;2023-02-18T09:10:59;15.20;99.90
14735;DHT22;7458;49.002;8.472;2023-02-18T09:13:26;15.10;99.90
14735;DHT22;7458;49.002;8.472;2023-02-18T09:16:05;15.00;99.90
14735;DHT22;7458;49.002;8.472;2023-02-18T09:18:33;15.00;99.90
14735;DHT22;7458;49.002;8.472;2023-02-18T09:21:03;14.90;99.90
14735;DHT22;7458;49.002;8.472;2023-02-18T09:23:32;14.90;99.90
14735;DHT22;7458;49.002;8.472;2023-02-18T09:25:58;14.90;99.90
14735;DHT22;7458;49.002;8.472;2023-02-18T09:28:24;15.00;99.90
14735;DHT22;7458;49.002;8.472;2023-02-18T09:30:51;15.10;99.90
14735;DHT22;7458;49.002;8.472;2023-02-18T09:33:17;15.20;99.90
14735;DHT22;7458;49.002;8.472;2023-02-18T09:35:45;15.30;99.90
14735;DHT22;7458;49.002;8.472;2023-02-18T09:38:16;15.50;99.90
14735;DHT22;7458;49.002;8.472;2023-02-18T09:40:47;15.50;99.90
14735;DHT22;7458;49.002;8.472;2023-02-18T09:43:21;15.50;99.90
14735;DHT22;7458;49.002;8.472;2023-02-18T09:45:53;15.40;99.90
14735;DHT22;7458;49.002;8.472;2023-02-18T09:48:27;15.30;99.90
14735;DHT22;7458;49.002;8.472;2023-02-18T09:50:55;15.30;99.90
14735;DHT22;7458;49.002;8.472;2023-02-18T09:53:22;15.10;99.90
14735;DHT22;7458;49.002;8.472;2023-02-18T09:55:51;15.10;99.90
14735;DHT22;7458;49.002;8.472;2023-02-18T09:58:30;15.00;99.90
14735;DHT22;7458;49.002;8.472;2023-02-18T10:03:38;15.20;99.90
14735;DHT22;7458;49.002;8.472;2023-02-18T10:06:06;15.20;99.90
14735;DHT22;7458;49.002;8.472;2023-02-18T10:08:43;15.10;99.90
14735;DHT22;7458;49.002;8.472;2023-02-18T10:11:19;15.10;99.90
14735;DHT22;7458;49.002;8.472;2023-02-18T10:13:49;15.00;99.90
14735;DHT22;7458;49.002;8.472;2023-02-18T10:16:18;15.00;99.90
14735;DHT22;7458;49.002;8.472;2023-02-18T10:18:49;15.00;99.90
14735;DHT22;7458;49.002;8.472;2023-02-18T10:21:21;14.90;99.90
14735;DHT22;7458;49.002;8.472;2023-02-18T10:26:37;14.70;99.90
14735;DHT22;7458;49.002;8.472;2023-02-18T10:29:13;14.80;99.90
14735;DHT22;7458;49.002;8.472;2023-02-18T10:31:48;14.80;99.90
14735;DHT22;7458;49.002;8.472;2023-02-18T10:36:55;14.70;99.90
14735;DHT22;7458;49.002;8.472;2023-02-18T10:42:42;14.70;99.90
14735;DHT22;7458;49.002;8.472;2023-02-18T10:45:37;14.70;99.90
14735;DHT22;7458;49.002;8.472;2023-02-18T10:48:26;14.70;99.90
14735;DHT22;7458;49.002;8.472;2023-02-18T10:51:33;14.70;99.90
14735;DHT22;7458;49.002;8.472;2023-02-18T10:54:01;14.70;99.90
14735;DHT22;7458;49.002;8.472;2023-02-18T10:56:38;14.70;99.90
14735;DHT22;7458;49.002;8.472;2023-02-18T10:59:23;14.70;99.90
14735;DHT22;7458;49.002;8.472;2023-02-18T11:01:57;14.80;99.90
14735;DHT22;7458;49.002;8.472;2023-02-18T11:04:44;14.80;99.90
14735;DHT22;7458;49.002;8.472;2023-02-18T11:07:32;14.80;99.90
14735;DHT22;7458;49.002;8.472;2023-02-18T11:10:15;15.00;99.90
14735;DHT22;7458;49.002;8.472;2023-02-18T11:12:49;15.00;99.90
14735;DHT22;7458;49.002;8.472;2023-02-18T11:15:25;15.00;99.90
14735;DHT22;7458;49.002;8.472;2023-02-18T11:21:02;15.20;99.90
14735;DHT22;7458;49.002;8.472;2023-02-18T11:23:30;15.30;99.90
14735;DHT22;7458;49.002;8.472;2023-02-18T11:26:00;15.40;99.90
14735;DHT22;7458;49.002;8.472;2023-02-18T11:31:25;15.40;99.90
14735;DHT22;7458;49.002;8.472;2023-02-18T11:34:02;15.50;99.90
14735;DHT22;7458;49.002;8.472;2023-02-18T11:36:30;15.50;99.90
14735;DHT22;7458;49.002;8.472;2023-02-18T11:39:27;15.50;99.90
14735;DHT22;7458;49.002;8.472;2023-02-18T11:42:06;15.50;99.90
14735;DHT22;7458;49.002;8.472;2023-02-18T11:44:37;15.60;99.90
14735;DHT22;7458;49.002;8.472;2023-02-18T11:47:39;15.50;99.90
14735;DHT22;7458;49.002;8.472;2023-02-18T11:52:43;15.40;99.90
14735;DHT22;7458;49.002;8.472;2023-02-18T12:00:44;15.30;99.90
14735;DHT22;7458;49.002;8.472;2023-02-18T12:06:56;15.20;99.90
14735;DHT22;7458;49.002;8.472;2023-02-18T12:09:45;15.30;99.90
14735;DHT22;7458;49.002;8.472;2023-02-18T12:14:43;15.20;99.90
14735;DHT22;7458;49.002;8.472;2023-02-18T12:20:36;15.20;99.90
14735;DHT22;7458;49.002;8.472;2023-02-18T12:26:05;15.10;99.90
14735;DHT22;7458;49.002;8.472;2023-02-18T12:37:59;15.10;99.90
14735;DHT22;7458;49.002;8.472;2023-02-18T12:46:30;14.90;99.90
14735;DHT22;7458;49.002;8.472;2023-02-18T12:52:23;14.90;99.90
14735;DHT22;7458;49.002;8.472;2023-02-18T13:01:14;15.00;99.90
14735;DHT22;7458;49.002;8.472;2023-02-18T13:10:33;14.80;99.90
14735;DHT22;7458;49.002;8.472;2023-02-18T13:13:15;14.70;99.90
14735;DHT22;7458;49.002;8.472;2023-02-18T13:15:58;14.70;99.90
14735;DHT22;7458;49.002;8.472;2023-02-18T13:18:32;14.70;99.90
14735;DHT22;7458;49.002;8.472;2023-02-18T13:21:04;14.70;99.90
14735;DHT22;7458;49.002;8.472;2023-02-18T13:26:18;14.80;99.90
14735;DHT22;7458;49.002;8.472;2023-02-18T13:40:44;15.00;99.90
14735;DHT22;7458;49.002;8.472;2023-02-18T13:48:34;15.00;99.90
14735;DHT22;7458;49.002;8.472;2023-02-18T13:56:54;15.40;99.90
14735;DHT22;7458;49.002;8.472;2023-02-18T13:59:37;15.50;99.90
14735;DHT22;7458;49.002;8.472;2023-02-18T14:18:53;15.50;99.90
14735;DHT22;7458;49.002;8.472;2023-02-18T14:26:21;15.60;98.80
14735;DHT22;7458;49.002;8.472;2023-02-18T14:29:00;15.60;98.30
14735;DHT22;7458;49.002;8.472;2023-02-18T14:31:46;15.60;98.60
14735;DHT22;7458;49.002;8.472;2023-02-18T14:34:21;15.50;97.60
14735;DHT22;7458;49.002;8.472;2023-02-18T14:51:53;13.60;96.00
14735;DHT22;7458;49.002;8.472;2023-02-18T14:54:24;15.40;96.60
14735;DHT22;7458;49.002;8.472;2023-02-18T14:56:59;15.40;96.70
14735;DHT22;7458;49.002;8.472;2023-02-18T14:59:40;15.30;97.10
14735;DHT22;7458;49.002;8.472;2023-02-18T15:02:22;15.30;96.90
14735;DHT22;7458;49.002;8.472;2023-02-18T15:04:52;15.20;97.00
14735;DHT22;7458;49.002;8.472;2023-02-18T15:07:21;15.20;97.00
14735;DHT22;7458;49.002;8.472;2023-02-18T15:09:53;15.10;97.30
14735;DHT22;7458;49.002;8.472;2023-02-18T15:12:22;15.10;97.70
14735;DHT22;7458;49.002;8.472;2023-02-18T15:14:52;15.20;97.50
14735;DHT22;7458;49.002;8.472;2023-02-18T15:17:22;15.20;98.70
14735;DHT22;7458;49.002;8.472;2023-02-18T15:19:54;15.30;98.10
14735;DHT22;7458;49.002;8.472;2023-02-18T15:22:30;15.30;97.80
14735;DHT22;7458;49.002;8.472;2023-02-18T15:24:59;15.20;97.70
14735;DHT22;7458;49.002;8.472;2023-02-18T15:27:31;15.20;97.80
14735;DHT22;7458;49.002;8.472;2023-02-18T15:32:54;15.20;97.90
14735;DHT22;7458;49.002;8.472;2023-02-18T15:35:22;15.10;98.00
14735;DHT22;7458;49.002;8.472;2023-02-18T15:37:55;15.10;98.20
14735;DHT22;7458;49.002;8.472;2023-02-18T15:40:27;15.00;98.10
14735;DHT22;7458;49.002;8.472;2023-02-18T15:42:58;15.00;98.20
14735;DHT22;7458;49.002;8.472;2023-02-18T15:45:40;14.90;98.50
14735;DHT22;7458;49.002;8.472;2023-02-18T15:48:42;14.80;98.70
14735;DHT22;7458;49.002;8.472;2023-02-18T15:51:13;14.80;98.70
14735;DHT22;7458;49.002;8.472;2023-02-18T15:53:49;14.70;99.00
14735;DHT22;7458;49.002;8.472;2023-02-18T15:56:39;14.70;99.20
14735;DHT22;7458;49.002;8.472;2023-02-18T16:01:49;14.60;99.60
14735;DHT22;7458;49.002;8.472;2023-02-18T16:04:16;14.60;99.60
14735;DHT22;7458;49.002;8.472;2023-02-18T16:06:49;14.80;99.90
14735;DHT22;7458;49.002;8.472;2023-02-18T16:11:56;15.50;99.90
14735;DHT22;7458;49.002;8.472;2023-02-18T16:14:33;15.00;99.40
14735;DHT22;7458;49.002;8.472;2023-02-18T16:24:58;14.50;99.90
14735;DHT22;7458;49.002;8.472;2023-02-18T16:27:34;14.40;99.90
14735;DHT22;7458;49.002;8.472;2023-02-18T16:30:19;14.30;99.90
14735;DHT22;7458;49.002;8.472;2023-02-18T16:32:48;14.30;99.90
14735;DHT22;7458;49.002;8.472;2023-02-18T16:35:14;14.20;99.90
14735;DHT22;7458;49.002;8.472;2023-02-18T16:37:41;14.20;99.90
14735;DHT22;7458;49.002;8.472;2023-02-18T16:43:20;14.10;99.90
14735;DHT22;7458;49.002;8.472;2023-02-18T16:45:55;14.10;99.90
14735;DHT22;7458;49.002;8.472;2023-02-18T16:50:59;14.00;99.90
14735;DHT22;7458;49.002;8.472;2023-02-18T16:53:29;13.90;99.90
14735;DHT22;7458;49.002;8.472;2023-02-18T16:55:55;13.90;99.90
14735;DHT22;7458;49.002;8.472;2023-02-18T16:58:20;13.90;99.90
14735;DHT22;7458;49.002;8.472;2023-02-18T17:00:48;13.90;99.90
14735;DHT22;7458;49.002;8.472;2023-02-18T17:03:18;13.90;99.90
14735;DHT22;7458;49.002;8.472;2023-02-18T17:05:45;13.70;99.90
14735;DHT22;7458;49.002;8.472;2023-02-18T17:08:20;13.60;99.90
14735;DHT22;7458;49.002;8.472;2023-02-18T17:10:55;13.60;99.90
14735;DHT22;7458;49.002;8.472;2023-02-18T17:13:27;13.50;99.90
14735;DHT22;7458;49.002;8.472;2023-02-18T17:15:55;13.50;99.90
14735;DHT22;7458;49.002;8.472;2023-02-18T17:18:23;13.40;99.90
14735;DHT22;7458;49.002;8.472;2023-02-18T17:20:50;13.40;99.90
14735;DHT22;7458;49.002;8.472;2023-02-18T17:23:21;13.40;99.90
14735;DHT22;7458;49.002;8.472;2023-02-18T17:25:48;13.40;99.90
14735;DHT22;7458;49.002;8.472;2023-02-18T17:28:16;13.40;99.90
14735;DHT22;7458;49.002;8.472;2023-02-18T17:30:46;13.30;99.90
14735;DHT22;7458;49.002;8.472;2023-02-18T17:33:16;13.30;99.90
14735;DHT22;7458;49.002;8.472;2023-02-18T17:35:43;13.20;99.90
14735;DHT22;7458;49.002;8.472;2023-02-18T17:38:16;13.20;99.90
14735;DHT22;7458;49.002;8.472;2023-02-18T17:40:47;13.10;99.90
14735;DHT22;7458;49.002;8.472;2023-02-18T17:43:16;13.20;99.90
14735;DHT22;7458;49.002;8.472;2023-02-18T17:45:49;13.10;99.90
14735;DHT22;7458;49.002;8.472;2023-02-18T17:48:17;13.10;99.90
14735;DHT22;7458;49.002;8.472;2023-02-18T17:50:44;13.10;99.90
14735;DHT22;7458;49.002;8.472;2023-02-18T17:53:11;13.10;99.90
14735;DHT22;7458;49.002;8.472;2023-02-18T17:55:38;13.10;99.90
14735;DHT22;7458;49.002;8.472;2023-02-18T17:58:04;12.90;99.90
14735;DHT22;7458;49.002;8.472;2023-02-18T18:00:42;13.00;99.90
14735;DHT22;7458;49.002;8.472;2023-02-18T18:03:28;13.20;99.90
14735;DHT22;7458;49.002;8.472;2023-02-18T18:05:54;13.20;99.90
14735;DHT22;7458;49.002;8.472;2023-02-18T18:08:22;13.10;99.90
14735;DHT22;7458;49.002;8.472;2023-02-18T18:10:56;13.10;99.90
14735;DHT22;7458;49.002;8.472;2023-02-18T18:13:26;13.20;99.90
14735;DHT22;7458;49.002;8.472;2023-02-18T18:15:53;13.20;99.90
14735;DHT22;7458;49.002;8.472;2023-02-18T18:18:20;13.10;99.90
14735;DHT22;7458;49.002;8.472;2023-02-18T18:20:53;13.10;99.90
14735;DHT22;7458;49.002;8.472;2023-02-18T18:23:22;13.10;99.90
14735;DHT22;7458;49.002;8.472;2023-02-18T18:25:51;13.00;99.90
14735;DHT22;7458;49.002;8.472;2023-02-18T18:28:19;13.00;99.90
14735;DHT22;7458;49.002;8.472;2023-02-18T18:30:47;13.10;99.90
14735;DHT22;7458;49.002;8.472;2023-02-18T18:33:30;13.10;99.90
14735;DHT22;7458;49.002;8.472;2023-02-18T18:35:58;13.00;99.90
14735;DHT22;7458;49.002;8.472;2023-02-18T18:38:27;13.00;99.90
14735;DHT22;7458;49.002;8.472;2023-02-18T18:40:54;13.00;99.90
14735;DHT22;7458;49.002;8.472;2023-02-18T18:43:25;13.00;99.90
14735;DHT22;7458;49.002;8.472;2023-02-18T18:45:54;13.00;99.90
14735;DHT22;7458;49.002;8.472;2023-02-18T18:48:21;12.90;99.90
14735;DHT22;7458;49.002;8.472;2023-02-18T18:50:48;12.90;99.90
14735;DHT22;7458;49.002;8.472;2023-02-18T18:53:23;12.90;99.90
14735;DHT22;7458;49.002;8.472;2023-02-18T18:55:52;12.90;99.90
14735;DHT22;7458;49.002;8.472;2023-02-18T18:58:23;12.90;99.90
14735;DHT22;7458;49.002;8.472;2023-02-18T19:00:51;12.90;99.90
14735;DHT22;7458;49.002;8.472;2023-02-18T19:03:21;12.90;99.90
14735;DHT22;7458;49.002;8.472;2023-02-18T19:05:48;12.80;99.90
14735;DHT22;7458;49.002;8.472;2023-02-18T19:08:15;12.70;99.90